Las Vegas, New Mexico
Current Conditions -  °F | °C
As of 6:53 AM on Thursday 29 Jan 2015 (Local Time) from KLVS Reporting Station
Clear Clear  
Wind Chill: 27°   Ceiling: Unl
Heat Index: 33°   Visibility: 10mi
Dew Point: 28°   Wind: 7mph
Humidity: 82%   Direction: 90°E
Pressure: 30.44"   Gusts: NA
Location:  35.6°N, 105.21°W
Report Text: KLVS 291353Z AUTO 09006KT 10SM CLR 01/M02 A3044 RMK AO2 SLP280 T00061022
Loading
Personal Weather Stations






























Interactive Weather Map New forecast layout! Learn more

10-Day Weather Forecast

Advertisements
Track Severe Weather on mobile